Falfurrias, TX

3:56 PM CDT on March 27, 2017 (GMT -0500)
Falfurrias

Weather History for KBKS - December, 2012

Change the Weather History Date:

Friday, December 21, 2012

  Actual Average (KNQI) Record (KNQI)
Temperature  
Mean Temperature 52 °F -  
Max Temperature 66 °F 65 °F 86 °F (2010)
Min Temperature 38 °F 44 °F 30 °F (2012)
Degree Days  
Heating Degree Days 13    
Growing Degree Days 2 (Base 50)    
Moisture  
Dew Point 23 °F    
Average Humidity 36    
Maximum Humidity 65    
Minimum Humidity 11    
Precipitation  
Precipitation 0.00 in - - ()
Sea Level Pressure  
Sea Level Pressure 30.45 in    
Wind  
Wind Speed 2 mph (ENE)    
Max Wind Speed 12 mph    
Max Gust Speed 16 mph    
Visibility 10 miles    
Events      
Averages and records for this station are not official NWS values.
T = Trace of Precipitation, MM = Missing Value Source: NWS Daily Summary

Daily Weather History Graph

Daily Weather History Graph

Search for Another Location

Airport or City:

Trip Planner

Search our weather history database for the weather conditions in past years. The results will help you decide how hot, cold, wet, or windy it might be!

Date:

Astronomy

Dec. 21, 2012 Rise Set
Actual Time 7:18 AM CST 5:43 PM CST
Civil Twilight 6:52 AM CST 6:09 PM CST
Nautical Twilight 6:23 AM CST 6:38 PM CST
Astronomical Twilight 5:54 AM CST 7:06 PM CST
Moon 1:12 PM CST (12/21) 1:28 AM CST (12/21)
Length of Visible Light 11h 16m
Length of Day
10h 25m
Waxing Gibbous, 65% of the Moon is Illuminated
Dec 21
Waxing Gibbous
Dec 28
Full
Jan 4
Last Quarter
Jan 11
New
Jan 18
First Quarter

Hourly Weather History & Observations

Time (CST) Temp. Windchill Dew Point Humidity Pressure Visibility Wind Dir Wind Speed Gust Speed Precip Events Conditions
12:15 AM 45.9 °F - 16.7 °F 31% 30.49 in 10.0 mi Calm Calm - N/A   Clear
12:35 AM 45.9 °F - 16.3 °F 31% 30.49 in 10.0 mi Calm Calm - N/A   Clear
12:55 AM 46.2 °F - 16.3 °F 30% 30.50 in 10.0 mi Calm Calm - N/A   Clear
1:15 AM 46.0 °F - 16.7 °F 31% 30.50 in 10.0 mi Calm Calm - N/A   Clear
1:35 AM 45.1 °F - 17.2 °F 33% 30.50 in 10.0 mi Calm Calm - N/A   Clear
1:55 AM 44.4 °F - 17.1 °F 33% 30.49 in 10.0 mi Calm Calm - N/A   Clear
2:15 AM 43.5 °F - 17.4 °F 35% 30.48 in 10.0 mi Calm Calm - N/A   Clear
2:35 AM 43.0 °F - 17.1 °F 35% 30.48 in 10.0 mi Calm Calm - N/A   Clear
2:55 AM 43.2 °F - 16.7 °F 35% 30.49 in 10.0 mi Calm Calm - N/A   Clear
3:15 AM 43.2 °F - 16.2 °F 34% 30.49 in 10.0 mi Calm Calm - N/A   Clear
3:35 AM 42.6 °F - 16.2 °F 34% 30.49 in 10.0 mi Calm Calm - N/A   Clear
3:55 AM 42.6 °F - 16.0 °F 34% 30.49 in 10.0 mi Calm Calm - N/A   Clear
4:15 AM 41.0 °F - 17.6 °F 39% 30.49 in 10.0 mi Calm Calm - N/A   Clear
4:35 AM 39.0 °F 36.8 °F 18.7 °F 44% 30.50 in 10.0 mi NW 3.5 mph - N/A   Clear
4:55 AM 40.3 °F - 17.2 °F 39% 30.50 in 10.0 mi Calm Calm - N/A   Clear
5:15 AM 40.8 °F - 17.2 °F 39% 30.50 in 10.0 mi Calm Calm - N/A   Clear
5:35 AM 40.1 °F 38.0 °F 17.2 °F 40% 30.50 in 10.0 mi NW 3.5 mph - N/A   Clear
5:55 AM 40.1 °F - 16.2 °F 38% 30.48 in 10.0 mi Calm Calm - N/A   Clear
6:15 AM 39.6 °F - 18.3 °F 42% 30.50 in 10.0 mi Calm Calm - N/A   Clear
6:35 AM 38.3 °F 35.9 °F 19.9 °F 48% 30.51 in 10.0 mi West 3.5 mph - N/A   Clear
6:55 AM 39.0 °F - 19.8 °F 46% 30.52 in 10.0 mi Calm Calm - N/A   Clear
7:15 AM 38.3 °F - 21.9 °F 52% 30.51 in 10.0 mi Calm Calm - N/A   Clear
7:35 AM 38.7 °F - 21.6 °F 50% 30.52 in 10.0 mi Calm Calm - N/A   Clear
7:55 AM 38.1 °F - 22.8 °F 54% 30.53 in 10.0 mi Calm Calm - N/A   Clear
8:15 AM 39.7 °F - 22.1 °F 49% 30.53 in 10.0 mi Calm Calm - N/A   Clear
8:35 AM 40.3 °F - 23.9 °F 52% 30.53 in 10.0 mi Calm Calm - N/A   Clear
8:55 AM 45.5 °F - 21.9 °F 39% 30.53 in 10.0 mi Calm Calm - N/A   Clear
9:15 AM 50.7 °F - 18.7 °F 28% 30.54 in 10.0 mi Calm Calm - N/A   Clear
9:35 AM 52.5 °F - 15.6 °F 23% 30.54 in 10.0 mi Calm Calm - N/A   Clear
9:55 AM 53.6 °F - 14.0 °F 21% 30.54 in 10.0 mi Calm Calm - N/A   Clear
10:15 AM 54.5 °F - 14.5 °F 21% 30.55 in 10.0 mi Calm Calm - N/A   Clear
10:35 AM 55.8 °F - 13.5 °F 19% 30.55 in 10.0 mi Calm Calm - N/A   Clear
11:15 AM 59.7 °F - 8.8 °F 13% 30.54 in 10.0 mi East 4.6 mph - N/A   Clear
11:35 AM 61.0 °F - 9.9 °F 13% 30.53 in 10.0 mi East 5.8 mph - N/A   Clear
11:55 AM 63.0 °F - 9.9 °F 12% 30.52 in 10.0 mi NE 5.8 mph - N/A   Clear
12:15 PM 62.8 °F - 8.6 °F 12% 30.50 in 10.0 mi East 8.1 mph - N/A   Clear
12:35 PM 63.3 °F - 7.7 °F 11% 30.48 in 10.0 mi ENE 11.5 mph - N/A   Clear
12:55 PM 62.4 °F - 7.5 °F 11% 30.48 in 10.0 mi NE 5.8 mph - N/A   Clear
1:15 PM 63.5 °F - 7.2 °F 11% 30.47 in 10.0 mi ENE 6.9 mph - N/A   Clear
1:35 PM 64.4 °F - 7.9 °F 11% 30.46 in 10.0 mi NE 6.9 mph - N/A   Clear
1:55 PM 63.7 °F - 9.0 °F 12% 30.43 in 10.0 mi NE 11.5 mph - N/A   Clear
2:15 PM 65.1 °F - 11.1 °F 12% 30.42 in 10.0 mi ENE 6.9 mph - N/A   Clear
2:35 PM 63.7 °F - 11.3 °F 13% 30.42 in 10.0 mi ENE 8.1 mph - N/A   Clear
2:55 PM 63.5 °F - 14.7 °F 15% 30.40 in 10.0 mi ENE 6.9 mph - N/A   Clear
3:15 PM 63.5 °F - 17.2 °F 17% 30.39 in 10.0 mi NE 8.1 mph - N/A   Clear
3:35 PM 64.4 °F - 21.0 °F 19% 30.38 in 10.0 mi ENE 8.1 mph - N/A   Clear
3:55 PM 65.1 °F - 25.3 °F 22% 30.37 in 10.0 mi ENE 9.2 mph - N/A   Clear
4:15 PM 66.2 °F - 28.8 °F 25% 30.38 in 10.0 mi East 11.5 mph - N/A   Clear
4:35 PM 66.2 °F - 31.5 °F 27% 30.37 in 10.0 mi ENE 10.4 mph - N/A   Clear
4:55 PM 65.7 °F - 32.0 °F 29% 30.36 in 10.0 mi East 10.4 mph 16.1 mph N/A   Clear
5:15 PM 64.6 °F - 32.7 °F 30% 30.37 in 10.0 mi East 8.1 mph 16.1 mph N/A   Clear
5:35 PM 63.7 °F - 33.4 °F 32% 30.37 in 10.0 mi East 6.9 mph - N/A   Clear
5:55 PM 62.6 °F - 35.6 °F 37% 30.37 in 10.0 mi East 6.9 mph - N/A   Clear
6:15 PM 61.5 °F - 35.1 °F 37% 30.37 in 10.0 mi East 8.1 mph - N/A   Clear
6:35 PM 60.8 °F - 36.5 °F 40% 30.36 in 10.0 mi East 8.1 mph - N/A   Clear
6:55 PM 59.9 °F - 37.4 °F 43% 30.37 in 10.0 mi East 5.8 mph - N/A   Clear
7:15 PM 59.0 °F - 38.3 °F 46% 30.39 in 10.0 mi ENE 5.8 mph - N/A   Clear
7:35 PM 57.6 °F - 39.6 °F 51% 30.38 in 10.0 mi East 4.6 mph - N/A   Clear
7:55 PM 56.7 °F - 40.3 °F 54% 30.38 in 10.0 mi East 4.6 mph - N/A   Clear
8:15 PM 56.5 °F - 40.8 °F 56% 30.38 in 10.0 mi East 4.6 mph - N/A   Clear
8:35 PM 55.4 °F - 40.6 °F 58% 30.39 in 10.0 mi NE 3.5 mph - N/A   Clear
8:55 PM 54.1 °F - 40.1 °F 59% 30.38 in 10.0 mi ENE 4.6 mph - N/A   Clear
9:15 PM 53.4 °F - 39.7 °F 60% 30.38 in 10.0 mi NE 3.5 mph - N/A   Clear
9:35 PM 52.9 °F - 39.4 °F 60% 30.38 in 10.0 mi East 3.5 mph - N/A   Clear
9:55 PM 51.8 °F - 39.4 °F 63% 30.37 in 10.0 mi ENE 4.6 mph - N/A   Clear
10:15 PM 51.8 °F - 39.6 °F 63% 30.37 in 10.0 mi ENE 4.6 mph - N/A   Clear
10:35 PM 51.6 °F - 39.4 °F 63% 30.37 in 10.0 mi ENE 4.6 mph - N/A   Clear
10:55 PM 51.1 °F - 39.2 °F 64% 30.36 in 10.0 mi ENE 3.5 mph - N/A   Clear
11:15 PM 51.1 °F - 39.2 °F 64% 30.36 in 10.0 mi ENE 3.5 mph - N/A   Clear
11:35 PM 50.9 °F - 39.2 °F 64% 30.35 in 10.0 mi ENE 4.6 mph - N/A   Clear
11:55 PM 50.0 °F - 38.7 °F 65% 30.35 in 10.0 mi East 3.5 mph - N/A   Clear